sensor_id;sensor_type;location;lat;lon;timestamp;pressure;altitude;pressure_sealevel;temperature;humidity
11223;BME280;5668;52.012;8.724;2023-09-19T00:00:26;99268.63;;;19.54;94.69
11223;BME280;5668;52.012;8.724;2023-09-19T00:02:54;99268.34;;;19.49;94.24
11223;BME280;5668;52.012;8.724;2023-09-19T00:05:24;99273.81;;;19.48;94.65
11223;BME280;5668;52.012;8.724;2023-09-19T00:07:54;99266.44;;;19.43;94.50
11223;BME280;5668;52.012;8.724;2023-09-19T00:10:23;99273.34;;;19.44;94.68
11223;BME280;5668;52.012;8.724;2023-09-19T00:12:50;99270.47;;;19.39;94.30
11223;BME280;5668;52.012;8.724;2023-09-19T00:15:19;99268.84;;;19.38;94.68
11223;BME280;5668;52.012;8.724;2023-09-19T00:17:46;99270.84;;;19.36;94.91
11223;BME280;5668;52.012;8.724;2023-09-19T00:20:14;99267.03;;;19.39;94.97
11223;BME280;5668;52.012;8.724;2023-09-19T00:22:44;99281.03;;;19.39;94.86
11223;BME280;5668;52.012;8.724;2023-09-19T00:25:12;99287.28;;;19.38;94.87
11223;BME280;5668;52.012;8.724;2023-09-19T00:27:41;99288.66;;;19.34;94.60
11223;BME280;5668;52.012;8.724;2023-09-19T00:30:11;99289.88;;;19.31;94.83
11223;BME280;5668;52.012;8.724;2023-09-19T00:32:42;99295.75;;;19.33;94.85
11223;BME280;5668;52.012;8.724;2023-09-19T00:35:09;99298.38;;;19.33;94.81
11223;BME280;5668;52.012;8.724;2023-09-19T00:37:37;99297.94;;;19.30;94.62
11223;BME280;5668;52.012;8.724;2023-09-19T00:40:08;99298.31;;;19.27;94.32
11223;BME280;5668;52.012;8.724;2023-09-19T00:42:38;99308.44;;;19.23;95.12
11223;BME280;5668;52.012;8.724;2023-09-19T00:45:07;99306.78;;;19.22;95.29
11223;BME280;5668;52.012;8.724;2023-09-19T00:47:37;99307.78;;;19.21;95.13
11223;BME280;5668;52.012;8.724;2023-09-19T00:50:05;99309.59;;;19.21;95.21
11223;BME280;5668;52.012;8.724;2023-09-19T00:52:34;99307.97;;;19.20;95.28
11223;BME280;5668;52.012;8.724;2023-09-19T00:55:06;99305.34;;;19.20;95.37
11223;BME280;5668;52.012;8.724;2023-09-19T00:57:34;99310.59;;;19.20;95.17
11223;BME280;5668;52.012;8.724;2023-09-19T01:00:05;99312.59;;;19.18;95.66
11223;BME280;5668;52.012;8.724;2023-09-19T01:02:34;99317.88;;;19.18;95.53
11223;BME280;5668;52.012;8.724;2023-09-19T01:05:03;99318.91;;;19.17;95.87
11223;BME280;5668;52.012;8.724;2023-09-19T01:07:32;99320.72;;;19.16;95.79
11223;BME280;5668;52.012;8.724;2023-09-19T01:10:00;99325.16;;;19.16;95.66
11223;BME280;5668;52.012;8.724;2023-09-19T01:12:38;99333.00;;;19.09;95.32
11223;BME280;5668;52.012;8.724;2023-09-19T01:15:17;99335.81;;;19.08;95.54
11223;BME280;5668;52.012;8.724;2023-09-19T01:17:48;99338.28;;;19.09;96.09
11223;BME280;5668;52.012;8.724;2023-09-19T01:20:25;99338.88;;;19.11;96.00
11223;BME280;5668;52.012;8.724;2023-09-19T01:23:04;99343.59;;;19.16;95.95
11223;BME280;5668;52.012;8.724;2023-09-19T01:28:45;99344.31;;;19.10;96.04
11223;BME280;5668;52.012;8.724;2023-09-19T01:31:21;99348.41;;;19.12;95.90
11223;BME280;5668;52.012;8.724;2023-09-19T01:33:58;99346.34;;;19.08;95.27
11223;BME280;5668;52.012;8.724;2023-09-19T01:36:30;99352.44;;;19.08;95.76
11223;BME280;5668;52.012;8.724;2023-09-19T01:39:00;99354.84;;;19.10;95.08
11223;BME280;5668;52.012;8.724;2023-09-19T01:44:36;99361.59;;;19.12;94.89
11223;BME280;5668;52.012;8.724;2023-09-19T01:47:17;99359.13;;;19.11;94.06
11223;BME280;5668;52.012;8.724;2023-09-19T01:49:55;99363.69;;;19.17;94.52
11223;BME280;5668;52.012;8.724;2023-09-19T01:52:26;99367.09;;;19.17;94.45
11223;BME280;5668;52.012;8.724;2023-09-19T01:55:00;99368.75;;;19.18;94.36
11223;BME280;5668;52.012;8.724;2023-09-19T01:57:35;99369.56;;;19.19;94.08
11223;BME280;5668;52.012;8.724;2023-09-19T02:00:08;99366.31;;;19.17;93.97
11223;BME280;5668;52.012;8.724;2023-09-19T02:02:42;99369.50;;;19.12;93.64
11223;BME280;5668;52.012;8.724;2023-09-19T02:05:11;99365.78;;;19.07;93.27
11223;BME280;5668;52.012;8.724;2023-09-19T02:07:39;99371.59;;;19.02;93.62
11223;BME280;5668;52.012;8.724;2023-09-19T02:10:07;99382.94;;;19.03;93.26
11223;BME280;5668;52.012;8.724;2023-09-19T02:12:36;99384.69;;;18.95;93.38
11223;BME280;5668;52.012;8.724;2023-09-19T02:15:04;99388.44;;;18.86;92.86
11223;BME280;5668;52.012;8.724;2023-09-19T02:17:33;99395.69;;;18.84;92.99
11223;BME280;5668;52.012;8.724;2023-09-19T02:20:02;99396.69;;;18.83;92.36
11223;BME280;5668;52.012;8.724;2023-09-19T02:22:37;99396.69;;;18.83;92.40
11223;BME280;5668;52.012;8.724;2023-09-19T02:25:05;99402.78;;;18.84;92.41
11223;BME280;5668;52.012;8.724;2023-09-19T02:27:33;99387.72;;;18.78;92.10
11223;BME280;5668;52.012;8.724;2023-09-19T02:30:00;99396.94;;;18.74;91.39
11223;BME280;5668;52.012;8.724;2023-09-19T02:32:30;99400.59;;;18.73;91.31
11223;BME280;5668;52.012;8.724;2023-09-19T02:34:57;99394.31;;;18.74;91.55
11223;BME280;5668;52.012;8.724;2023-09-19T02:37:26;99398.41;;;18.76;91.37
11223;BME280;5668;52.012;8.724;2023-09-19T02:39:53;99390.53;;;18.76;91.00
11223;BME280;5668;52.012;8.724;2023-09-19T02:42:21;99390.53;;;18.76;90.91
11223;BME280;5668;52.012;8.724;2023-09-19T02:44:48;99393.97;;;18.77;90.78
11223;BME280;5668;52.012;8.724;2023-09-19T02:47:15;99395.78;;;18.76;90.43
11223;BME280;5668;52.012;8.724;2023-09-19T02:49:42;99397.41;;;18.77;90.66
11223;BME280;5668;52.012;8.724;2023-09-19T02:52:10;99401.06;;;18.76;90.24
11223;BME280;5668;52.012;8.724;2023-09-19T02:54:41;99400.59;;;18.73;90.45
11223;BME280;5668;52.012;8.724;2023-09-19T02:57:11;99407.31;;;18.75;90.28
11223;BME280;5668;52.012;8.724;2023-09-19T02:59:40;99406.06;;;18.71;90.26
11223;BME280;5668;52.012;8.724;2023-09-19T03:02:08;99409.91;;;19.19;87.23
11223;BME280;5668;52.012;8.724;2023-09-19T03:04:35;99408.59;;;18.94;88.42
11223;BME280;5668;52.012;8.724;2023-09-19T03:07:03;99407.22;;;18.83;88.85
11223;BME280;5668;52.012;8.724;2023-09-19T03:09:30;99415.56;;;18.72;88.57
11223;BME280;5668;52.012;8.724;2023-09-19T03:11:59;99419.56;;;18.68;89.06
11223;BME280;5668;52.012;8.724;2023-09-19T03:14:26;99415.66;;;18.64;89.19
11223;BME280;5668;52.012;8.724;2023-09-19T03:16:56;99418.66;;;18.61;88.86
11223;BME280;5668;52.012;8.724;2023-09-19T03:19:23;99408.47;;;18.58;89.33
11223;BME280;5668;52.012;8.724;2023-09-19T03:21:52;99429.72;;;18.57;89.85
11223;BME280;5668;52.012;8.724;2023-09-19T03:24:19;99426.59;;;18.53;89.13
11223;BME280;5668;52.012;8.724;2023-09-19T03:26:46;99425.34;;;18.49;89.26
11223;BME280;5668;52.012;8.724;2023-09-19T03:29:15;99432.59;;;18.47;89.87
11223;BME280;5668;52.012;8.724;2023-09-19T03:31:43;99436.84;;;18.48;89.78
11223;BME280;5668;52.012;8.724;2023-09-19T03:34:11;99444.66;;;18.41;88.80
11223;BME280;5668;52.012;8.724;2023-09-19T03:36:39;99446.63;;;18.39;89.53
11223;BME280;5668;52.012;8.724;2023-09-19T03:39:07;99438.56;;;18.41;88.62
11223;BME280;5668;52.012;8.724;2023-09-19T03:41:34;99447.16;;;18.35;89.42
11223;BME280;5668;52.012;8.724;2023-09-19T03:44:02;99435.84;;;18.34;89.08
11223;BME280;5668;52.012;8.724;2023-09-19T03:46:31;99438.25;;;18.36;89.17
11223;BME280;5668;52.012;8.724;2023-09-19T03:48:58;99435.38;;;18.31;88.28
11223;BME280;5668;52.012;8.724;2023-09-19T03:51:26;99437.53;;;18.27;88.96
11223;BME280;5668;52.012;8.724;2023-09-19T03:53:53;99440.16;;;18.27;88.82
11223;BME280;5668;52.012;8.724;2023-09-19T03:56:20;99443.97;;;18.25;88.68
11223;BME280;5668;52.012;8.724;2023-09-19T03:58:47;99439.78;;;18.15;88.83
11223;BME280;5668;52.012;8.724;2023-09-19T04:01:15;99446.09;;;18.06;87.91
11223;BME280;5668;52.012;8.724;2023-09-19T04:03:44;99451.00;;;18.09;88.28
11223;BME280;5668;52.012;8.724;2023-09-19T04:06:14;99446.56;;;18.10;88.38
11223;BME280;5668;52.012;8.724;2023-09-19T04:08:42;99446.72;;;18.08;88.60
11223;BME280;5668;52.012;8.724;2023-09-19T04:11:10;99444.44;;;18.05;88.40
11223;BME280;5668;52.012;8.724;2023-09-19T04:13:37;99443.28;;;18.08;88.81
11223;BME280;5668;52.012;8.724;2023-09-19T04:16:04;99444.09;;;18.08;88.57
11223;BME280;5668;52.012;8.724;2023-09-19T04:18:32;99439.84;;;18.07;88.27
11223;BME280;5668;52.012;8.724;2023-09-19T04:21:04;99442.81;;;18.04;87.79
11223;BME280;5668;52.012;8.724;2023-09-19T04:23:32;99441.53;;;18.00;87.30
11223;BME280;5668;52.012;8.724;2023-09-19T04:25:59;99439.72;;;18.01;87.28
11223;BME280;5668;52.012;8.724;2023-09-19T04:28:26;99444.16;;;18.00;87.28
11223;BME280;5668;52.012;8.724;2023-09-19T04:30:53;99454.03;;;17.98;87.13
11223;BME280;5668;52.012;8.724;2023-09-19T04:33:22;99465.75;;;17.96;87.15
11223;BME280;5668;52.012;8.724;2023-09-19T04:35:49;99463.94;;;17.96;87.24
11223;BME280;5668;52.012;8.724;2023-09-19T04:38:19;99465.91;;;17.94;87.21
11223;BME280;5668;52.012;8.724;2023-09-19T04:40:46;99472.50;;;17.90;87.29
11223;BME280;5668;52.012;8.724;2023-09-19T04:43:13;99472.03;;;17.87;87.18
11223;BME280;5668;52.012;8.724;2023-09-19T04:45:41;99474.50;;;17.88;87.36
11223;BME280;5668;52.012;8.724;2023-09-19T04:48:09;99470.41;;;17.86;87.00
11223;BME280;5668;52.012;8.724;2023-09-19T04:50:36;99478.13;;;17.87;87.13
11223;BME280;5668;52.012;8.724;2023-09-19T04:53:04;99474.84;;;17.85;86.51
11223;BME280;5668;52.012;8.724;2023-09-19T04:55:34;99475.69;;;17.77;85.92
11223;BME280;5668;52.012;8.724;2023-09-19T04:58:02;99480.78;;;17.79;86.08
11223;BME280;5668;52.012;8.724;2023-09-19T05:00:30;99476.84;;;17.75;86.26
11223;BME280;5668;52.012;8.724;2023-09-19T05:03:01;99491.81;;;17.74;86.48
11223;BME280;5668;52.012;8.724;2023-09-19T05:05:30;99498.91;;;17.74;86.61
11223;BME280;5668;52.012;8.724;2023-09-19T05:07:57;99505.16;;;17.73;86.09
11223;BME280;5668;52.012;8.724;2023-09-19T05:10:25;99512.66;;;17.76;86.22
11223;BME280;5668;52.012;8.724;2023-09-19T05:12:54;99515.13;;;17.77;86.50
11223;BME280;5668;52.012;8.724;2023-09-19T05:15:22;99510.22;;;17.74;86.25
11223;BME280;5668;52.012;8.724;2023-09-19T05:17:49;99506.13;;;17.72;86.29
11223;BME280;5668;52.012;8.724;2023-09-19T05:20:18;99513.84;;;17.73;86.32
11223;BME280;5668;52.012;8.724;2023-09-19T05:22:57;99513.19;;;17.71;86.19
11223;BME280;5668;52.012;8.724;2023-09-19T05:25:24;99508.09;;;17.70;85.73
11223;BME280;5668;52.012;8.724;2023-09-19T05:27:55;99509.09;;;17.69;85.59
11223;BME280;5668;52.012;8.724;2023-09-19T05:30:23;99512.25;;;17.64;85.71
11223;BME280;5668;52.012;8.724;2023-09-19T05:32:50;99519.59;;;17.61;85.71
11223;BME280;5668;52.012;8.724;2023-09-19T05:35:18;99525.22;;;17.58;85.24
11223;BME280;5668;52.012;8.724;2023-09-19T05:37:47;99536.88;;;17.55;85.71
11223;BME280;5668;52.012;8.724;2023-09-19T05:40:17;99549.22;;;17.55;85.64
11223;BME280;5668;52.012;8.724;2023-09-19T05:42:45;99549.53;;;17.52;85.75
11223;BME280;5668;52.012;8.724;2023-09-19T05:45:14;99562.22;;;17.48;85.31
11223;BME280;5668;52.012;8.724;2023-09-19T05:47:45;99559.75;;;17.47;86.08
11223;BME280;5668;52.012;8.724;2023-09-19T05:50:13;99553.50;;;17.48;86.08
11223;BME280;5668;52.012;8.724;2023-09-19T05:52:40;99560.72;;;17.46;85.94
11223;BME280;5668;52.012;8.724;2023-09-19T05:55:10;99561.25;;;17.41;85.24
11223;BME280;5668;52.012;8.724;2023-09-19T05:57:37;99569.66;;;17.36;85.11
11223;BME280;5668;52.012;8.724;2023-09-19T06:00:06;99560.44;;;17.40;85.55
11223;BME280;5668;52.012;8.724;2023-09-19T06:02:38;99567.31;;;17.41;85.60
11223;BME280;5668;52.012;8.724;2023-09-19T06:05:06;99571.91;;;17.39;85.05
11223;BME280;5668;52.012;8.724;2023-09-19T06:07:36;99580.94;;;17.37;84.90
11223;BME280;5668;52.012;8.724;2023-09-19T06:10:04;99584.91;;;17.41;85.46
11223;BME280;5668;52.012;8.724;2023-09-19T06:12:33;99591.94;;;17.40;84.55
11223;BME280;5668;52.012;8.724;2023-09-19T06:15:03;99575.53;;;17.38;84.64
11223;BME280;5668;52.012;8.724;2023-09-19T06:17:34;99579.13;;;17.37;84.57
11223;BME280;5668;52.012;8.724;2023-09-19T06:20:07;99572.28;;;17.36;84.25
11223;BME280;5668;52.012;8.724;2023-09-19T06:22:40;99566.00;;;17.37;84.43
11223;BME280;5668;52.012;8.724;2023-09-19T06:25:09;99564.41;;;17.36;84.64
11223;BME280;5668;52.012;8.724;2023-09-19T06:27:38;99566.81;;;17.38;85.13
11223;BME280;5668;52.012;8.724;2023-09-19T06:30:08;99556.97;;;17.40;84.90
11223;BME280;5668;52.012;8.724;2023-09-19T06:32:37;99554.50;;;17.38;84.47
11223;BME280;5668;52.012;8.724;2023-09-19T06:35:06;99561.13;;;17.34;84.55
11223;BME280;5668;52.012;8.724;2023-09-19T06:37:34;99565.03;;;17.38;84.55
11223;BME280;5668;52.012;8.724;2023-09-19T06:40:07;99565.69;;;17.40;84.78
11223;BME280;5668;52.012;8.724;2023-09-19T06:42:40;99563.34;;;17.46;84.14
11223;BME280;5668;52.012;8.724;2023-09-19T06:45:08;99567.94;;;17.52;84.03
11223;BME280;5668;52.012;8.724;2023-09-19T06:47:37;99565.97;;;17.54;84.39
11223;BME280;5668;52.012;8.724;2023-09-19T06:50:07;99572.16;;;17.61;84.38
11223;BME280;5668;52.012;8.724;2023-09-19T06:52:39;99569.25;;;17.64;84.08
11223;BME280;5668;52.012;8.724;2023-09-19T06:55:07;99567.56;;;17.71;83.83
11223;BME280;5668;52.012;8.724;2023-09-19T06:57:35;99583.34;;;17.71;84.09
11223;BME280;5668;52.012;8.724;2023-09-19T07:00:03;99574.78;;;17.69;82.86
11223;BME280;5668;52.012;8.724;2023-09-19T07:02:35;99575.16;;;17.66;82.10
11223;BME280;5668;52.012;8.724;2023-09-19T07:05:02;99584.50;;;17.68;82.31
11223;BME280;5668;52.012;8.724;2023-09-19T07:07:32;99575.63;;;17.69;81.85
11223;BME280;5668;52.012;8.724;2023-09-19T07:10:01;99584.97;;;17.72;81.79
11223;BME280;5668;52.012;8.724;2023-09-19T07:12:28;99584.63;;;17.75;82.28
11223;BME280;5668;52.012;8.724;2023-09-19T07:14:55;99593.00;;;17.78;82.44
11223;BME280;5668;52.012;8.724;2023-09-19T07:17:23;99590.91;;;17.74;81.65
11223;BME280;5668;52.012;8.724;2023-09-19T07:19:50;99594.50;;;17.73;81.85
11223;BME280;5668;52.012;8.724;2023-09-19T07:22:17;99596.63;;;17.77;81.87
11223;BME280;5668;52.012;8.724;2023-09-19T07:24:46;99611.41;;;17.78;82.28
11223;BME280;5668;52.012;8.724;2023-09-19T07:27:14;99600.72;;;17.80;81.99
11223;BME280;5668;52.012;8.724;2023-09-19T07:29:42;99615.00;;;17.77;81.91
11223;BME280;5668;52.012;8.724;2023-09-19T07:32:09;99609.47;;;17.72;81.70
11223;BME280;5668;52.012;8.724;2023-09-19T07:34:36;99611.91;;;17.74;81.84
11223;BME280;5668;52.012;8.724;2023-09-19T07:37:05;99612.91;;;17.73;82.65
11223;BME280;5668;52.012;8.724;2023-09-19T07:39:32;99619.44;;;17.77;83.14
11223;BME280;5668;52.012;8.724;2023-09-19T07:42:01;99624.84;;;17.84;82.99
11223;BME280;5668;52.012;8.724;2023-09-19T07:44:28;99619.59;;;17.84;82.18
11223;BME280;5668;52.012;8.724;2023-09-19T07:46:55;99623.84;;;17.85;81.84
11223;BME280;5668;52.012;8.724;2023-09-19T07:49:22;99618.09;;;17.89;82.24
11223;BME280;5668;52.012;8.724;2023-09-19T07:51:50;99615.41;;;17.97;82.22
11223;BME280;5668;52.012;8.724;2023-09-19T07:54:18;99611.47;;;18.01;82.05
11223;BME280;5668;52.012;8.724;2023-09-19T07:56:47;99611.09;;;18.04;81.80
11223;BME280;5668;52.012;8.724;2023-09-19T07:59:16;99621.78;;;18.11;81.81
11223;BME280;5668;52.012;8.724;2023-09-19T08:01:43;99607.81;;;18.10;80.18
11223;BME280;5668;52.012;8.724;2023-09-19T08:04:10;99621.56;;;18.12;80.52
11223;BME280;5668;52.012;8.724;2023-09-19T08:06:37;99618.63;;;18.15;80.40
11223;BME280;5668;52.012;8.724;2023-09-19T08:09:05;99616.09;;;18.22;80.44
11223;BME280;5668;52.012;8.724;2023-09-19T08:11:36;99614.31;;;18.23;80.54
11223;BME280;5668;52.012;8.724;2023-09-19T08:14:03;99613.97;;;18.26;79.88
11223;BME280;5668;52.012;8.724;2023-09-19T08:16:33;99604.06;;;18.28;80.26
11223;BME280;5668;52.012;8.724;2023-09-19T08:19:00;99611.78;;;18.29;79.66
11223;BME280;5668;52.012;8.724;2023-09-19T08:21:27;99612.91;;;18.35;80.61
11223;BME280;5668;52.012;8.724;2023-09-19T08:23:56;99623.09;;;18.38;80.31
11223;BME280;5668;52.012;8.724;2023-09-19T08:26:23;99616.66;;;18.40;80.30
11223;BME280;5668;52.012;8.724;2023-09-19T08:28:51;99620.13;;;18.41;80.61
11223;BME280;5668;52.012;8.724;2023-09-19T08:31:19;99621.72;;;18.42;80.86
11223;BME280;5668;52.012;8.724;2023-09-19T08:33:48;99632.91;;;18.44;80.37
11223;BME280;5668;52.012;8.724;2023-09-19T08:36:15;99626.00;;;18.43;80.08
11223;BME280;5668;52.012;8.724;2023-09-19T08:38:42;99635.84;;;18.49;79.79
11223;BME280;5668;52.012;8.724;2023-09-19T08:41:10;99629.56;;;18.50;78.86
11223;BME280;5668;52.012;8.724;2023-09-19T08:43:38;99631.88;;;18.53;79.20
11223;BME280;5668;52.012;8.724;2023-09-19T08:46:10;99637.66;;;18.57;78.74
11223;BME280;5668;52.012;8.724;2023-09-19T08:48:45;99641.22;;;18.64;79.62
11223;BME280;5668;52.012;8.724;2023-09-19T08:51:21;99642.31;;;18.69;79.96
11223;BME280;5668;52.012;8.724;2023-09-19T08:54:03;99641.94;;;18.72;79.83
11223;BME280;5668;52.012;8.724;2023-09-19T08:56:33;99631.09;;;18.75;79.93
11223;BME280;5668;52.012;8.724;2023-09-19T08:59:03;99639.63;;;18.77;79.46
11223;BME280;5668;52.012;8.724;2023-09-19T09:01:33;99648.97;;;18.80;79.33
11223;BME280;5668;52.012;8.724;2023-09-19T09:04:02;99647.53;;;18.77;78.03
11223;BME280;5668;52.012;8.724;2023-09-19T09:06:31;99647.88;;;18.74;78.44
11223;BME280;5668;52.012;8.724;2023-09-19T09:09:00;99650.16;;;18.77;78.91
11223;BME280;5668;52.012;8.724;2023-09-19T09:11:29;99645.72;;;18.78;79.13
11223;BME280;5668;52.012;8.724;2023-09-19T09:13:59;99652.75;;;18.85;80.04
11223;BME280;5668;52.012;8.724;2023-09-19T09:16:26;99648.09;;;18.87;79.50
11223;BME280;5668;52.012;8.724;2023-09-19T09:18:54;99652.84;;;18.92;79.42
11223;BME280;5668;52.012;8.724;2023-09-19T09:21:21;99665.47;;;18.97;79.53
11223;BME280;5668;52.012;8.724;2023-09-19T09:23:50;99652.13;;;18.98;79.18
11223;BME280;5668;52.012;8.724;2023-09-19T09:26:41;99647.34;;;19.02;78.79
11223;BME280;5668;52.012;8.724;2023-09-19T09:29:08;99643.00;;;19.09;79.10
11223;BME280;5668;52.012;8.724;2023-09-19T09:31:35;99642.63;;;19.12;78.78
11223;BME280;5668;52.012;8.724;2023-09-19T09:34:04;99642.63;;;19.12;78.41
11223;BME280;5668;52.012;8.724;2023-09-19T09:36:35;99642.28;;;19.15;77.43
11223;BME280;5668;52.012;8.724;2023-09-19T09:39:04;99635.81;;;19.17;78.17
11223;BME280;5668;52.012;8.724;2023-09-19T09:41:42;99650.47;;;19.20;77.52
11223;BME280;5668;52.012;8.724;2023-09-19T09:44:17;99649.72;;;19.26;77.60
11223;BME280;5668;52.012;8.724;2023-09-19T09:46:46;99643.13;;;19.30;77.38
11223;BME280;5668;52.012;8.724;2023-09-19T09:49:48;99640.75;;;19.35;77.71
11223;BME280;5668;52.012;8.724;2023-09-19T09:52:20;99644.31;;;19.42;76.46
11223;BME280;5668;52.012;8.724;2023-09-19T09:55:01;99649.19;;;19.53;75.22
11223;BME280;5668;52.012;8.724;2023-09-19T09:57:31;99646.16;;;19.56;75.06
11223;BME280;5668;52.012;8.724;2023-09-19T10:00:00;99654.47;;;19.68;75.76
11223;BME280;5668;52.012;8.724;2023-09-19T10:02:42;99651.91;;;19.75;75.12
11223;BME280;5668;52.012;8.724;2023-09-19T10:05:13;99653.06;;;19.87;74.62
11223;BME280;5668;52.012;8.724;2023-09-19T10:07:48;99640.19;;;19.92;73.35
11223;BME280;5668;52.012;8.724;2023-09-19T10:10:32;99639.16;;;19.93;72.41
11223;BME280;5668;52.012;8.724;2023-09-19T10:13:20;99632.94;;;20.00;72.40
11223;BME280;5668;52.012;8.724;2023-09-19T10:15:51;99631.78;;;20.03;72.46
11223;BME280;5668;52.012;8.724;2023-09-19T10:18:22;99638.34;;;20.07;71.79
11223;BME280;5668;52.012;8.724;2023-09-19T10:20:51;99633.13;;;20.14;71.56
11223;BME280;5668;52.012;8.724;2023-09-19T10:23:20;99647.16;;;20.14;71.48
11223;BME280;5668;52.012;8.724;2023-09-19T10:25:51;99648.66;;;20.23;71.90
11223;BME280;5668;52.012;8.724;2023-09-19T10:28:20;99644.19;;;20.24;70.32
11223;BME280;5668;52.012;8.724;2023-09-19T10:30:48;99647.03;;;20.22;69.59
11223;BME280;5668;52.012;8.724;2023-09-19T10:33:18;99647.13;;;20.29;70.07
11223;BME280;5668;52.012;8.724;2023-09-19T10:35:47;99644.25;;;20.30;69.71
11223;BME280;5668;52.012;8.724;2023-09-19T10:38:18;99651.50;;;20.36;70.26
11223;BME280;5668;52.012;8.724;2023-09-19T10:40:51;99646.81;;;20.38;69.50
11223;BME280;5668;52.012;8.724;2023-09-19T10:43:20;99657.38;;;20.38;69.01
11223;BME280;5668;52.012;8.724;2023-09-19T10:45:48;99657.03;;;20.41;68.50
11223;BME280;5668;52.012;8.724;2023-09-19T10:48:18;99663.66;;;20.37;68.08
11223;BME280;5668;52.012;8.724;2023-09-19T10:50:48;99659.19;;;20.38;69.36
11223;BME280;5668;52.012;8.724;2023-09-19T10:53:17;99657.03;;;20.41;70.04
11223;BME280;5668;52.012;8.724;2023-09-19T10:55:52;99648.63;;;20.38;68.92
11223;BME280;5668;52.012;8.724;2023-09-19T10:58:27;99643.19;;;20.39;68.96
11223;BME280;5668;52.012;8.724;2023-09-19T11:00:56;99644.25;;;20.45;68.97
11223;BME280;5668;52.012;8.724;2023-09-19T11:03:28;99642.72;;;20.51;69.49
11223;BME280;5668;52.012;8.724;2023-09-19T11:06:08;99639.13;;;20.58;70.26
11223;BME280;5668;52.012;8.724;2023-09-19T11:09:00;99641.44;;;20.68;68.75
11223;BME280;5668;52.012;8.724;2023-09-19T11:11:47;99644.34;;;20.73;68.24
11223;BME280;5668;52.012;8.724;2023-09-19T11:14:41;99644.00;;;20.82;69.26
11223;BME280;5668;52.012;8.724;2023-09-19T11:17:40;99630.50;;;20.71;65.82
11223;BME280;5668;52.012;8.724;2023-09-19T11:20:22;99621.94;;;20.69;66.39
11223;BME280;5668;52.012;8.724;2023-09-19T11:23:26;99630.50;;;20.71;66.63
11223;BME280;5668;52.012;8.724;2023-09-19T11:25:54;99632.09;;;20.65;66.30
11223;BME280;5668;52.012;8.724;2023-09-19T11:28:32;99628.44;;;20.66;65.87
11223;BME280;5668;52.012;8.724;2023-09-19T11:34:41;99621.69;;;20.85;65.61
11223;BME280;5668;52.012;8.724;2023-09-19T11:40:37;99623.97;;;20.88;65.89
11223;BME280;5668;52.012;8.724;2023-09-19T11:43:30;99623.31;;;20.86;66.07
11223;BME280;5668;52.012;8.724;2023-09-19T11:46:06;99611.63;;;20.95;67.33
11223;BME280;5668;52.012;8.724;2023-09-19T11:48:34;99619.16;;;20.98;66.05
11223;BME280;5668;52.012;8.724;2023-09-19T11:51:11;99614.41;;;20.87;63.88
11223;BME280;5668;52.012;8.724;2023-09-19T11:53:45;99618.28;;;20.91;63.83
11223;BME280;5668;52.012;8.724;2023-09-19T11:56:15;99609.63;;;20.97;62.16
11223;BME280;5668;52.012;8.724;2023-09-19T11:58:45;99612.72;;;21.07;62.82
11223;BME280;5668;52.012;8.724;2023-09-19T12:01:21;99626.06;;;21.20;63.68
11223;BME280;5668;52.012;8.724;2023-09-19T12:03:54;99621.22;;;21.24;63.45
11223;BME280;5668;52.012;8.724;2023-09-19T12:06:24;99619.16;;;21.19;61.53
11223;BME280;5668;52.012;8.724;2023-09-19T12:08:51;99628.28;;;21.17;61.70
11223;BME280;5668;52.012;8.724;2023-09-19T12:11:21;99631.50;;;21.12;61.41
11223;BME280;5668;52.012;8.724;2023-09-19T12:13:50;99635.13;;;21.11;61.51
11223;BME280;5668;52.012;8.724;2023-09-19T12:16:20;99628.44;;;21.15;62.06
11223;BME280;5668;52.012;8.724;2023-09-19T12:18:51;99632.16;;;21.21;62.31
11223;BME280;5668;52.012;8.724;2023-09-19T12:21:27;99622.03;;;21.24;62.70
11223;BME280;5668;52.012;8.724;2023-09-19T12:24:07;99619.22;;;21.26;61.95
11223;BME280;5668;52.012;8.724;2023-09-19T12:26:41;99622.03;;;21.24;62.64
11223;BME280;5668;52.012;8.724;2023-09-19T12:29:18;99615.94;;;21.24;63.52
11223;BME280;5668;52.012;8.724;2023-09-19T12:31:50;99601.25;;;21.21;63.24
11223;BME280;5668;52.012;8.724;2023-09-19T12:34:20;99598.44;;;21.23;62.29
11223;BME280;5668;52.012;8.724;2023-09-19T12:36:48;99601.59;;;21.12;61.47
11223;BME280;5668;52.012;8.724;2023-09-19T12:39:25;99602.78;;;21.09;62.18
11223;BME280;5668;52.012;8.724;2023-09-19T12:41:53;99602.94;;;21.01;60.83
11223;BME280;5668;52.012;8.724;2023-09-19T12:44:22;99593.81;;;21.04;62.49
11223;BME280;5668;52.012;8.724;2023-09-19T12:46:50;99592.59;;;21.06;62.57
11223;BME280;5668;52.012;8.724;2023-09-19T12:49:21;99592.59;;;21.06;62.05
11223;BME280;5668;52.012;8.724;2023-09-19T12:51:49;99585.66;;;21.05;61.56
11223;BME280;5668;52.012;8.724;2023-09-19T12:54:21;99584.91;;;21.11;61.38
11223;BME280;5668;52.012;8.724;2023-09-19T12:56:51;99588.88;;;21.22;62.76
11223;BME280;5668;52.012;8.724;2023-09-19T12:59:30;99587.91;;;21.30;61.96
11223;BME280;5668;52.012;8.724;2023-09-19T13:02:04;99588.94;;;21.35;62.42
11223;BME280;5668;52.012;8.724;2023-09-19T13:04:33;99587.13;;;21.36;62.58
11223;BME280;5668;52.012;8.724;2023-09-19T13:07:06;99577.16;;;21.38;62.66
11223;BME280;5668;52.012;8.724;2023-09-19T13:09:35;99587.97;;;21.43;61.91
11223;BME280;5668;52.012;8.724;2023-09-19T13:12:04;99578.47;;;21.48;61.45
11223;BME280;5668;52.012;8.724;2023-09-19T13:14:35;99577.03;;;21.52;61.63
11223;BME280;5668;52.012;8.724;2023-09-19T13:17:07;99575.25;;;21.59;62.05
11223;BME280;5668;52.012;8.724;2023-09-19T13:19:43;99578.91;;;21.58;60.45
11223;BME280;5668;52.012;8.724;2023-09-19T13:22:37;99575.03;;;21.54;59.95
11223;BME280;5668;52.012;8.724;2023-09-19T13:25:06;99561.81;;;21.54;59.88
11223;BME280;5668;52.012;8.724;2023-09-19T13:27:34;99563.25;;;21.57;59.35
11223;BME280;5668;52.012;8.724;2023-09-19T13:30:03;99565.69;;;21.58;59.08
11223;BME280;5668;52.012;8.724;2023-09-19T13:32:32;99568.94;;;21.54;58.02
11223;BME280;5668;52.012;8.724;2023-09-19T13:34:59;99559.13;;;21.48;56.44
11223;BME280;5668;52.012;8.724;2023-09-19T13:37:27;99566.44;;;21.46;57.00
11223;BME280;5668;52.012;8.724;2023-09-19T13:39:54;99565.81;;;21.44;57.26